sensor_id;sensor_type;location;lat;lon;timestamp;temperature;humidity
78479;SHT31;67769;51.972;5.668;2023-04-06T00:02:07;8.9;40.1
78479;SHT31;67769;51.972;5.668;2023-04-06T00:04:37;8.9;40.3
78479;SHT31;67769;51.972;5.668;2023-04-06T00:07:07;8.9;40.3
78479;SHT31;67769;51.972;5.668;2023-04-06T00:09:37;8.9;40.2
78479;SHT31;67769;51.972;5.668;2023-04-06T00:12:08;8.9;40.4
78479;SHT31;67769;51.972;5.668;2023-04-06T00:14:38;8.9;40.4
78479;SHT31;67769;51.972;5.668;2023-04-06T00:17:08;8.9;40.9
78479;SHT31;67769;51.972;5.668;2023-04-06T00:19:37;8.9;40.7
78479;SHT31;67769;51.972;5.668;2023-04-06T00:22:07;8.9;40.9
78479;SHT31;67769;51.972;5.668;2023-04-06T00:24:37;8.8;41.0
78479;SHT31;67769;51.972;5.668;2023-04-06T00:27:09;8.8;41.1
78479;SHT31;67769;51.972;5.668;2023-04-06T00:29:39;8.8;40.7
78479;SHT31;67769;51.972;5.668;2023-04-06T00:32:09;8.8;41.1
78479;SHT31;67769;51.972;5.668;2023-04-06T00:34:39;8.8;41.1
78479;SHT31;67769;51.972;5.668;2023-04-06T00:37:10;8.7;41.6
78479;SHT31;67769;51.972;5.668;2023-04-06T00:39:40;8.7;41.1
78479;SHT31;67769;51.972;5.668;2023-04-06T00:42:12;8.7;41.0
78479;SHT31;67769;51.972;5.668;2023-04-06T00:44:42;8.7;41.4
78479;SHT31;67769;51.972;5.668;2023-04-06T00:47:12;8.6;40.5
78479;SHT31;67769;51.972;5.668;2023-04-06T00:49:42;8.6;41.4
78479;SHT31;67769;51.972;5.668;2023-04-06T00:52:14;8.6;40.7
78479;SHT31;67769;51.972;5.668;2023-04-06T00:54:45;8.6;40.6
78479;SHT31;67769;51.972;5.668;2023-04-06T00:57:15;8.6;40.4
78479;SHT31;67769;51.972;5.668;2023-04-06T00:59:45;8.5;40.1
78479;SHT31;67769;51.972;5.668;2023-04-06T01:02:15;8.5;40.2
78479;SHT31;67769;51.972;5.668;2023-04-06T01:04:46;8.5;40.5
78479;SHT31;67769;51.972;5.668;2023-04-06T01:07:16;8.5;40.4
78479;SHT31;67769;51.972;5.668;2023-04-06T01:09:46;8.5;40.3
78479;SHT31;67769;51.972;5.668;2023-04-06T01:12:16;8.5;40.4
78479;SHT31;67769;51.972;5.668;2023-04-06T01:14:46;8.5;40.5
78479;SHT31;67769;51.972;5.668;2023-04-06T01:17:16;8.5;41.0
78479;SHT31;67769;51.972;5.668;2023-04-06T01:19:46;8.5;40.9
78479;SHT31;67769;51.972;5.668;2023-04-06T01:22:17;8.5;41.0
78479;SHT31;67769;51.972;5.668;2023-04-06T01:24:49;8.5;41.2
78479;SHT31;67769;51.972;5.668;2023-04-06T01:27:21;8.5;41.2
78479;SHT31;67769;51.972;5.668;2023-04-06T01:29:50;8.4;41.3
78479;SHT31;67769;51.972;5.668;2023-04-06T01:32:20;8.4;41.3
78479;SHT31;67769;51.972;5.668;2023-04-06T01:34:50;8.4;41.4
78479;SHT31;67769;51.972;5.668;2023-04-06T01:37:20;8.4;41.2
78479;SHT31;67769;51.972;5.668;2023-04-06T01:39:50;8.4;41.3
78479;SHT31;67769;51.972;5.668;2023-04-06T01:42:20;8.4;41.4
78479;SHT31;67769;51.972;5.668;2023-04-06T01:44:49;8.4;41.4
78479;SHT31;67769;51.972;5.668;2023-04-06T01:47:19;8.4;41.2
78479;SHT31;67769;51.972;5.668;2023-04-06T01:49:49;8.4;41.4
78479;SHT31;67769;51.972;5.668;2023-04-06T01:52:18;8.4;41.5
78479;SHT31;67769;51.972;5.668;2023-04-06T01:54:48;8.4;41.5
78479;SHT31;67769;51.972;5.668;2023-04-06T01:57:18;8.4;41.4
78479;SHT31;67769;51.972;5.668;2023-04-06T01:59:47;8.4;41.4
78479;SHT31;67769;51.972;5.668;2023-04-06T02:02:17;8.4;41.4
78479;SHT31;67769;51.972;5.668;2023-04-06T02:04:47;8.4;41.5
78479;SHT31;67769;51.972;5.668;2023-04-06T02:07:17;8.4;41.4
78479;SHT31;67769;51.972;5.668;2023-04-06T02:09:47;8.4;41.6
78479;SHT31;67769;51.972;5.668;2023-04-06T02:12:16;8.4;41.8
78479;SHT31;67769;51.972;5.668;2023-04-06T02:14:46;8.4;41.7
78479;SHT31;67769;51.972;5.668;2023-04-06T02:17:16;8.4;41.8
78479;SHT31;67769;51.972;5.668;2023-04-06T02:19:46;8.4;41.9
78479;SHT31;67769;51.972;5.668;2023-04-06T02:22:15;8.4;42.1
78479;SHT31;67769;51.972;5.668;2023-04-06T02:24:45;8.4;42.2
78479;SHT31;67769;51.972;5.668;2023-04-06T02:27:15;8.4;42.2
78479;SHT31;67769;51.972;5.668;2023-04-06T02:29:45;8.4;42.2
78479;SHT31;67769;51.972;5.668;2023-04-06T02:32:15;8.4;42.2
78479;SHT31;67769;51.972;5.668;2023-04-06T02:34:45;8.4;42.1
78479;SHT31;67769;51.972;5.668;2023-04-06T02:37:14;8.4;42.1
78479;SHT31;67769;51.972;5.668;2023-04-06T02:39:45;8.4;42.2
78479;SHT31;67769;51.972;5.668;2023-04-06T02:42:14;8.4;42.3
78479;SHT31;67769;51.972;5.668;2023-04-06T02:44:44;8.4;42.2
78479;SHT31;67769;51.972;5.668;2023-04-06T02:47:14;8.4;42.2
78479;SHT31;67769;51.972;5.668;2023-04-06T02:49:44;8.5;42.1
78479;SHT31;67769;51.972;5.668;2023-04-06T02:52:13;8.5;42.3
78479;SHT31;67769;51.972;5.668;2023-04-06T02:54:45;8.5;42.2
78479;SHT31;67769;51.972;5.668;2023-04-06T02:57:14;8.5;42.3
78479;SHT31;67769;51.972;5.668;2023-04-06T02:59:44;8.5;42.2
78479;SHT31;67769;51.972;5.668;2023-04-06T03:02:14;8.5;42.3
78479;SHT31;67769;51.972;5.668;2023-04-06T03:04:44;8.5;42.2
78479;SHT31;67769;51.972;5.668;2023-04-06T03:07:14;8.5;42.0
78479;SHT31;67769;51.972;5.668;2023-04-06T03:14:33;9.0;40.5
78479;SHT31;67769;51.972;5.668;2023-04-06T03:17:03;9.0;40.7
78479;SHT31;67769;51.972;5.668;2023-04-06T03:19:32;9.0;40.5
78479;SHT31;67769;51.972;5.668;2023-04-06T03:22:02;9.0;40.5
78479;SHT31;67769;51.972;5.668;2023-04-06T03:24:32;9.0;40.4
78479;SHT31;67769;51.972;5.668;2023-04-06T03:27:02;9.0;40.6
78479;SHT31;67769;51.972;5.668;2023-04-06T03:29:32;9.0;40.5
78479;SHT31;67769;51.972;5.668;2023-04-06T03:32:01;8.9;40.5
78479;SHT31;67769;51.972;5.668;2023-04-06T03:34:31;8.9;40.8
78479;SHT31;67769;51.972;5.668;2023-04-06T03:37:01;8.9;40.8
78479;SHT31;67769;51.972;5.668;2023-04-06T03:39:30;8.9;40.9
78479;SHT31;67769;51.972;5.668;2023-04-06T03:42:02;8.9;41.0
78479;SHT31;67769;51.972;5.668;2023-04-06T03:44:31;8.8;40.8
78479;SHT31;67769;51.972;5.668;2023-04-06T03:47:02;8.8;41.1
78479;SHT31;67769;51.972;5.668;2023-04-06T03:49:31;8.8;41.2
78479;SHT31;67769;51.972;5.668;2023-04-06T03:52:01;8.8;41.1
78479;SHT31;67769;51.972;5.668;2023-04-06T03:54:30;8.8;41.3
78479;SHT31;67769;51.972;5.668;2023-04-06T03:57:00;8.7;41.5
78479;SHT31;67769;51.972;5.668;2023-04-06T03:59:30;8.7;41.4
78479;SHT31;67769;51.972;5.668;2023-04-06T04:01:59;8.7;41.6
78479;SHT31;67769;51.972;5.668;2023-04-06T04:04:29;8.7;41.7
78479;SHT31;67769;51.972;5.668;2023-04-06T04:06:59;8.7;41.7
78479;SHT31;67769;51.972;5.668;2023-04-06T04:09:28;8.7;41.8
78479;SHT31;67769;51.972;5.668;2023-04-06T04:11:58;8.7;41.7
78479;SHT31;67769;51.972;5.668;2023-04-06T04:14:27;8.7;41.6
78479;SHT31;67769;51.972;5.668;2023-04-06T04:16:57;8.7;41.7
78479;SHT31;67769;51.972;5.668;2023-04-06T04:19:27;8.7;42.0
78479;SHT31;67769;51.972;5.668;2023-04-06T04:21:57;8.7;42.0
78479;SHT31;67769;51.972;5.668;2023-04-06T04:24:26;8.7;42.2
78479;SHT31;67769;51.972;5.668;2023-04-06T04:26:56;8.7;42.4
78479;SHT31;67769;51.972;5.668;2023-04-06T04:29:25;8.7;42.5
78479;SHT31;67769;51.972;5.668;2023-04-06T04:31:55;8.7;42.6
78479;SHT31;67769;51.972;5.668;2023-04-06T04:34:25;8.7;42.6
78479;SHT31;67769;51.972;5.668;2023-04-06T04:36:55;8.7;42.7
78479;SHT31;67769;51.972;5.668;2023-04-06T04:39:25;8.7;42.7
78479;SHT31;67769;51.972;5.668;2023-04-06T04:41:54;8.6;42.8
78479;SHT31;67769;51.972;5.668;2023-04-06T04:44:24;8.6;43.7
78479;SHT31;67769;51.972;5.668;2023-04-06T04:46:54;8.6;42.8
78479;SHT31;67769;51.972;5.668;2023-04-06T04:49:24;8.6;42.9
78479;SHT31;67769;51.972;5.668;2023-04-06T04:51:53;8.6;42.9
78479;SHT31;67769;51.972;5.668;2023-04-06T04:54:23;8.6;43.1
78479;SHT31;67769;51.972;5.668;2023-04-06T04:56:53;8.6;43.2
78479;SHT31;67769;51.972;5.668;2023-04-06T04:59:22;8.6;43.3
78479;SHT31;67769;51.972;5.668;2023-04-06T05:01:52;8.5;43.4
78479;SHT31;67769;51.972;5.668;2023-04-06T05:04:22;8.5;43.5
78479;SHT31;67769;51.972;5.668;2023-04-06T05:07:05;8.5;43.4
78479;SHT31;67769;51.972;5.668;2023-04-06T05:09:35;8.5;43.5
78479;SHT31;67769;51.972;5.668;2023-04-06T05:12:05;8.5;43.5
78479;SHT31;67769;51.972;5.668;2023-04-06T05:14:35;8.5;43.5
78479;SHT31;67769;51.972;5.668;2023-04-06T05:17:05;8.5;43.5
78479;SHT31;67769;51.972;5.668;2023-04-06T05:19:37;8.5;43.6
78479;SHT31;67769;51.972;5.668;2023-04-06T05:22:07;8.5;43.5
78479;SHT31;67769;51.972;5.668;2023-04-06T05:24:37;8.5;43.5
78479;SHT31;67769;51.972;5.668;2023-04-06T05:27:07;8.5;43.7
78479;SHT31;67769;51.972;5.668;2023-04-06T05:29:37;8.5;43.8
78479;SHT31;67769;51.972;5.668;2023-04-06T05:32:07;8.5;43.8
78479;SHT31;67769;51.972;5.668;2023-04-06T05:34:37;8.5;44.0
78479;SHT31;67769;51.972;5.668;2023-04-06T05:37:07;8.5;44.0
78479;SHT31;67769;51.972;5.668;2023-04-06T05:39:36;8.5;44.0
78479;SHT31;67769;51.972;5.668;2023-04-06T05:42:06;8.5;44.0
78479;SHT31;67769;51.972;5.668;2023-04-06T05:44:36;8.5;44.2
78479;SHT31;67769;51.972;5.668;2023-04-06T05:47:06;8.5;44.2
78479;SHT31;67769;51.972;5.668;2023-04-06T05:49:36;8.6;44.4
78479;SHT31;67769;51.972;5.668;2023-04-06T05:52:06;8.6;44.3
78479;SHT31;67769;51.972;5.668;2023-04-06T05:54:36;8.6;44.1
78479;SHT31;67769;51.972;5.668;2023-04-06T05:57:06;8.7;44.1
78479;SHT31;67769;51.972;5.668;2023-04-06T05:59:38;8.7;44.2
78479;SHT31;67769;51.972;5.668;2023-04-06T06:02:08;8.8;44.3
78479;SHT31;67769;51.972;5.668;2023-04-06T06:04:39;8.9;44.5
78479;SHT31;67769;51.972;5.668;2023-04-06T06:07:09;9.1;44.3
78479;SHT31;67769;51.972;5.668;2023-04-06T06:09:38;9.3;43.6
78479;SHT31;67769;51.972;5.668;2023-04-06T06:12:10;9.4;43.3
78479;SHT31;67769;51.972;5.668;2023-04-06T06:14:40;9.5;43.0
78479;SHT31;67769;51.972;5.668;2023-04-06T06:17:10;9.6;42.6
78479;SHT31;67769;51.972;5.668;2023-04-06T06:19:42;9.7;42.7
78479;SHT31;67769;51.972;5.668;2023-04-06T06:22:11;9.8;42.8
78479;SHT31;67769;51.972;5.668;2023-04-06T06:24:41;9.9;42.4
78479;SHT31;67769;51.972;5.668;2023-04-06T06:27:11;9.9;42.9
78479;SHT31;67769;51.972;5.668;2023-04-06T06:29:41;10.0;42.6
78479;SHT31;67769;51.972;5.668;2023-04-06T06:32:11;10.2;42.2
78479;SHT31;67769;51.972;5.668;2023-04-06T06:34:40;10.3;42.0
78479;SHT31;67769;51.972;5.668;2023-04-06T06:37:12;10.4;42.1
78479;SHT31;67769;51.972;5.668;2023-04-06T06:39:42;10.5;41.8
78479;SHT31;67769;51.972;5.668;2023-04-06T06:42:12;10.6;41.4
78479;SHT31;67769;51.972;5.668;2023-04-06T06:44:41;10.7;41.5
78479;SHT31;67769;51.972;5.668;2023-04-06T06:47:11;10.7;41.5
78479;SHT31;67769;51.972;5.668;2023-04-06T06:49:42;10.7;41.7
78479;SHT31;67769;51.972;5.668;2023-04-06T06:52:12;10.7;42.1
78479;SHT31;67769;51.972;5.668;2023-04-06T06:54:42;10.7;42.3
78479;SHT31;67769;51.972;5.668;2023-04-06T06:57:11;10.6;42.6
78479;SHT31;67769;51.972;5.668;2023-04-06T06:59:41;10.6;42.9
78479;SHT31;67769;51.972;5.668;2023-04-06T07:02:11;10.6;43.2
78479;SHT31;67769;51.972;5.668;2023-04-06T07:04:40;10.6;43.4
78479;SHT31;67769;51.972;5.668;2023-04-06T07:07:10;10.5;43.8
78479;SHT31;67769;51.972;5.668;2023-04-06T07:09:41;10.5;43.8
78479;SHT31;67769;51.972;5.668;2023-04-06T07:12:11;10.6;44.0
78479;SHT31;67769;51.972;5.668;2023-04-06T07:14:41;10.6;44.2
78479;SHT31;67769;51.972;5.668;2023-04-06T07:17:11;10.6;44.3
78479;SHT31;67769;51.972;5.668;2023-04-06T07:19:40;10.7;44.2
78479;SHT31;67769;51.972;5.668;2023-04-06T07:22:12;10.8;44.8
78479;SHT31;67769;51.972;5.668;2023-04-06T07:24:41;10.9;44.8
78479;SHT31;67769;51.972;5.668;2023-04-06T07:27:11;10.9;44.4
78479;SHT31;67769;51.972;5.668;2023-04-06T07:29:43;11.0;43.8
78479;SHT31;67769;51.972;5.668;2023-04-06T07:32:12;11.1;44.1
78479;SHT31;67769;51.972;5.668;2023-04-06T07:34:42;11.1;43.6
78479;SHT31;67769;51.972;5.668;2023-04-06T07:37:12;11.1;43.0
78479;SHT31;67769;51.972;5.668;2023-04-06T07:39:42;11.1;42.8
78479;SHT31;67769;51.972;5.668;2023-04-06T07:42:13;11.1;42.6
78479;SHT31;67769;51.972;5.668;2023-04-06T07:44:42;11.1;42.4
78479;SHT31;67769;51.972;5.668;2023-04-06T07:47:12;11.1;42.1
78479;SHT31;67769;51.972;5.668;2023-04-06T07:49:42;11.1;42.2
78479;SHT31;67769;51.972;5.668;2023-04-06T07:52:12;11.1;42.5
78479;SHT31;67769;51.972;5.668;2023-04-06T07:54:42;11.0;42.2
78479;SHT31;67769;51.972;5.668;2023-04-06T07:57:13;11.0;42.7
78479;SHT31;67769;51.972;5.668;2023-04-06T07:59:43;11.0;43.0
78479;SHT31;67769;51.972;5.668;2023-04-06T08:02:12;11.0;43.5
78479;SHT31;67769;51.972;5.668;2023-04-06T08:04:42;10.9;43.5
78479;SHT31;67769;51.972;5.668;2023-04-06T08:07:12;10.9;43.8
78479;SHT31;67769;51.972;5.668;2023-04-06T08:09:42;10.9;43.8
78479;SHT31;67769;51.972;5.668;2023-04-06T08:12:11;10.9;43.9
78479;SHT31;67769;51.972;5.668;2023-04-06T08:14:43;10.9;43.9
78479;SHT31;67769;51.972;5.668;2023-04-06T08:17:12;10.9;44.2
78479;SHT31;67769;51.972;5.668;2023-04-06T08:19:43;10.9;43.8
78479;SHT31;67769;51.972;5.668;2023-04-06T08:22:14;10.9;43.8
78479;SHT31;67769;51.972;5.668;2023-04-06T08:24:43;10.9;43.8
78479;SHT31;67769;51.972;5.668;2023-04-06T08:27:13;10.9;44.0
78479;SHT31;67769;51.972;5.668;2023-04-06T08:29:43;10.9;44.4
78479;SHT31;67769;51.972;5.668;2023-04-06T08:32:13;10.9;44.4
78479;SHT31;67769;51.972;5.668;2023-04-06T08:34:43;11.0;44.9
78479;SHT31;67769;51.972;5.668;2023-04-06T08:37:12;11.0;44.7
78479;SHT31;67769;51.972;5.668;2023-04-06T08:39:42;11.0;44.7
78479;SHT31;67769;51.972;5.668;2023-04-06T08:42:18;11.1;45.3
78479;SHT31;67769;51.972;5.668;2023-04-06T08:44:49;11.2;44.8
78479;SHT31;67769;51.972;5.668;2023-04-06T08:47:20;11.3;44.6
78479;SHT31;67769;51.972;5.668;2023-04-06T08:49:54;11.4;44.6
78479;SHT31;67769;51.972;5.668;2023-04-06T08:52:25;11.5;43.8
78479;SHT31;67769;51.972;5.668;2023-04-06T08:54:56;11.6;43.7
78479;SHT31;67769;51.972;5.668;2023-04-06T08:57:26;11.7;43.1
78479;SHT31;67769;51.972;5.668;2023-04-06T08:59:56;11.8;43.3
78479;SHT31;67769;51.972;5.668;2023-04-06T09:02:27;11.9;43.7
78479;SHT31;67769;51.972;5.668;2023-04-06T09:04:57;11.9;43.5
78479;SHT31;67769;51.972;5.668;2023-04-06T09:07:29;12.0;43.1
78479;SHT31;67769;51.972;5.668;2023-04-06T09:09:59;12.1;43.6
78479;SHT31;67769;51.972;5.668;2023-04-06T09:12:30;12.2;43.5
78479;SHT31;67769;51.972;5.668;2023-04-06T09:15:01;12.2;43.2
78479;SHT31;67769;51.972;5.668;2023-04-06T09:17:32;12.3;42.5
78479;SHT31;67769;51.972;5.668;2023-04-06T09:20:03;12.3;42.3
78479;SHT31;67769;51.972;5.668;2023-04-06T09:22:40;12.4;42.6
78479;SHT31;67769;51.972;5.668;2023-04-06T09:25:20;12.5;43.0
78479;SHT31;67769;51.972;5.668;2023-04-06T09:28:00;12.6;42.4
78479;SHT31;67769;51.972;5.668;2023-04-06T09:30:31;12.8;42.5
78479;SHT31;67769;51.972;5.668;2023-04-06T09:33:02;12.9;41.5
78479;SHT31;67769;51.972;5.668;2023-04-06T09:35:32;13.0;41.5
78479;SHT31;67769;51.972;5.668;2023-04-06T09:38:12;13.1;41.2
78479;SHT31;67769;51.972;5.668;2023-04-06T09:40:50;13.1;41.7
78479;SHT31;67769;51.972;5.668;2023-04-06T09:43:27;13.2;41.5
78479;SHT31;67769;51.972;5.668;2023-04-06T09:46:00;13.3;41.1
78479;SHT31;67769;51.972;5.668;2023-04-06T09:48:34;13.4;41.4
78479;SHT31;67769;51.972;5.668;2023-04-06T09:51:07;13.5;41.0
78479;SHT31;67769;51.972;5.668;2023-04-06T09:53:41;13.5;40.9
78479;SHT31;67769;51.972;5.668;2023-04-06T09:56:12;13.5;41.0
78479;SHT31;67769;51.972;5.668;2023-04-06T09:58:50;13.5;41.0
78479;SHT31;67769;51.972;5.668;2023-04-06T10:01:27;13.5;41.1
78479;SHT31;67769;51.972;5.668;2023-04-06T10:04:07;13.5;41.2
78479;SHT31;67769;51.972;5.668;2023-04-06T10:06:41;13.4;40.7
78479;SHT31;67769;51.972;5.668;2023-04-06T10:09:11;13.4;41.1
78479;SHT31;67769;51.972;5.668;2023-04-06T10:11:42;13.4;41.2
78479;SHT31;67769;51.972;5.668;2023-04-06T10:14:12;13.4;41.2
78479;SHT31;67769;51.972;5.668;2023-04-06T10:16:42;13.4;41.0
78479;SHT31;67769;51.972;5.668;2023-04-06T10:19:18;13.4;41.3
78479;SHT31;67769;51.972;5.668;2023-04-06T10:21:54;13.4;41.5
78479;SHT31;67769;51.972;5.668;2023-04-06T10:24:27;13.4;42.0
78479;SHT31;67769;51.972;5.668;2023-04-06T10:27:01;13.5;42.2
78479;SHT31;67769;51.972;5.668;2023-04-06T10:29:42;13.7;41.9
78479;SHT31;67769;51.972;5.668;2023-04-06T10:32:14;13.7;42.1
78479;SHT31;67769;51.972;5.668;2023-04-06T10:34:43;13.7;42.9
78479;SHT31;67769;51.972;5.668;2023-04-06T10:37:15;13.8;42.4
78479;SHT31;67769;51.972;5.668;2023-04-06T10:39:52;13.9;42.3
78479;SHT31;67769;51.972;5.668;2023-04-06T10:42:38;13.9;42.5
78479;SHT31;67769;51.972;5.668;2023-04-06T10:45:21;13.9;42.9
78479;SHT31;67769;51.972;5.668;2023-04-06T10:47:52;14.0;43.1
78479;SHT31;67769;51.972;5.668;2023-04-06T10:50:23;14.0;43.6
78479;SHT31;67769;51.972;5.668;2023-04-06T10:53:02;14.0;44.8
78479;SHT31;67769;51.972;5.668;2023-04-06T10:55:32;14.1;45.3
78479;SHT31;67769;51.972;5.668;2023-04-06T10:58:06;14.1;45.9
78479;SHT31;67769;51.972;5.668;2023-04-06T11:00:45;14.1;47.2
78479;SHT31;67769;51.972;5.668;2023-04-06T11:03:15;14.1;47.5
78479;SHT31;67769;51.972;5.668;2023-04-06T11:05:45;14.1;47.8
78479;SHT31;67769;51.972;5.668;2023-04-06T11:08:26;14.1;48.5
78479;SHT31;67769;51.972;5.668;2023-04-06T11:11:06;14.0;50.3
78479;SHT31;67769;51.972;5.668;2023-04-06T11:13:41;14.0;50.5
78479;SHT31;67769;51.972;5.668;2023-04-06T11:16:16;14.0;51.6
78479;SHT31;67769;51.972;5.668;2023-04-06T11:18:53;14.0;52.0
78479;SHT31;67769;51.972;5.668;2023-04-06T11:21:34;13.9;52.8
78479;SHT31;67769;51.972;5.668;2023-04-06T11:24:09;13.9;52.3
78479;SHT31;67769;51.972;5.668;2023-04-06T11:26:41;13.9;52.7
78479;SHT31;67769;51.972;5.668;2023-04-06T11:29:12;13.9;51.2
78479;SHT31;67769;51.972;5.668;2023-04-06T11:31:45;13.8;51.2
78479;SHT31;67769;51.972;5.668;2023-04-06T11:34:17;13.8;52.2
78479;SHT31;67769;51.972;5.668;2023-04-06T11:36:49;13.7;52.3
78479;SHT31;67769;51.972;5.668;2023-04-06T11:39:23;13.7;53.8
78479;SHT31;67769;51.972;5.668;2023-04-06T11:41:57;13.7;53.5
78479;SHT31;67769;51.972;5.668;2023-04-06T11:44:32;13.7;51.9
78479;SHT31;67769;51.972;5.668;2023-04-06T11:47:04;13.6;52.3
78479;SHT31;67769;51.972;5.668;2023-04-06T11:49:42;13.6;53.3
78479;SHT31;67769;51.972;5.668;2023-04-06T11:52:20;13.5;53.4
78479;SHT31;67769;51.972;5.668;2023-04-06T11:54:51;13.5;52.6
78479;SHT31;67769;51.972;5.668;2023-04-06T11:57:24;13.4;53.8
78479;SHT31;67769;51.972;5.668;2023-04-06T11:59:57;13.4;53.1
78479;SHT31;67769;51.972;5.668;2023-04-06T12:02:29;13.3;53.4
78479;SHT31;67769;51.972;5.668;2023-04-06T12:04:59;13.3;53.4
78479;SHT31;67769;51.972;5.668;2023-04-06T12:07:30;13.2;53.7
78479;SHT31;67769;51.972;5.668;2023-04-06T12:10:01;13.2;53.4
78479;SHT31;67769;51.972;5.668;2023-04-06T12:12:32;13.1;52.7
78479;SHT31;67769;51.972;5.668;2023-04-06T12:15:02;13.0;53.6
78479;SHT31;67769;51.972;5.668;2023-04-06T12:17:32;12.9;53.4
78479;SHT31;67769;51.972;5.668;2023-04-06T12:20:02;12.8;54.0
78479;SHT31;67769;51.972;5.668;2023-04-06T12:22:32;12.7;54.3
78479;SHT31;67769;51.972;5.668;2023-04-06T12:25:02;12.7;55.7
78479;SHT31;67769;51.972;5.668;2023-04-06T12:27:32;12.6;55.0
78479;SHT31;67769;51.972;5.668;2023-04-06T12:30:02;12.5;55.9
78479;SHT31;67769;51.972;5.668;2023-04-06T12:32:33;12.5;56.2
78479;SHT31;67769;51.972;5.668;2023-04-06T12:35:03;12.4;57.0
78479;SHT31;67769;51.972;5.668;2023-04-06T12:37:33;12.4;56.9
78479;SHT31;67769;51.972;5.668;2023-04-06T12:40:03;12.3;57.3
78479;SHT31;67769;51.972;5.668;2023-04-06T12:42:35;12.3;58.6
78479;SHT31;67769;51.972;5.668;2023-04-06T12:45:05;12.2;59.0
78479;SHT31;67769;51.972;5.668;2023-04-06T12:47:35;12.2;59.1
78479;SHT31;67769;51.972;5.668;2023-04-06T12:50:06;12.2;58.9
78479;SHT31;67769;51.972;5.668;2023-04-06T12:52:35;12.1;59.5
78479;SHT31;67769;51.972;5.668;2023-04-06T12:55:08;12.1;59.3
78479;SHT31;67769;51.972;5.668;2023-04-06T12:57:38;12.1;59.5
78479;SHT31;67769;51.972;5.668;2023-04-06T13:00:10;12.0;60.3
78479;SHT31;67769;51.972;5.668;2023-04-06T13:02:40;12.0;59.6
78479;SHT31;67769;51.972;5.668;2023-04-06T13:05:14;12.0;59.5
78479;SHT31;67769;51.972;5.668;2023-04-06T13:07:46;12.0;59.3
78479;SHT31;67769;51.972;5.668;2023-04-06T13:10:16;11.9;59.7
78479;SHT31;67769;51.972;5.668;2023-04-06T13:12:46;11.9;60.4
78479;SHT31;67769;51.972;5.668;2023-04-06T13:15:16;11.9;60.6
78479;SHT31;67769;51.972;5.668;2023-04-06T13:17:46;11.8;61.6
78479;SHT31;67769;51.972;5.668;2023-04-06T13:20:15;11.8;61.9
78479;SHT31;67769;51.972;5.668;2023-04-06T13:27:16;12.1;59.5
78479;SHT31;67769;51.972;5.668;2023-04-06T13:29:46;12.0;59.7
78479;SHT31;67769;51.972;5.668;2023-04-06T13:32:16;12.0;59.9
78479;SHT31;67769;51.972;5.668;2023-04-06T13:34:46;12.0;59.9
78479;SHT31;67769;51.972;5.668;2023-04-06T13:37:18;12.0;59.8
78479;SHT31;67769;51.972;5.668;2023-04-06T13:39:48;12.0;59.8
78479;SHT31;67769;51.972;5.668;2023-04-06T13:42:18;12.0;60.2
78479;SHT31;67769;51.972;5.668;2023-04-06T13:44:48;11.9;60.0
78479;SHT31;67769;51.972;5.668;2023-04-06T13:47:18;11.9;60.3
78479;SHT31;67769;51.972;5.668;2023-04-06T13:49:49;11.9;60.6
78479;SHT31;67769;51.972;5.668;2023-04-06T13:52:20;11.8;61.2
78479;SHT31;67769;51.972;5.668;2023-04-06T13:54:50;11.8;61.8
78479;SHT31;67769;51.972;5.668;2023-04-06T13:57:22;11.8;61.5
78479;SHT31;67769;51.972;5.668;2023-04-06T13:59:51;11.8;62.6
78479;SHT31;67769;51.972;5.668;2023-04-06T14:02:21;11.7;62.4
78479;SHT31;67769;51.972;5.668;2023-04-06T14:04:54;11.7;62.4
78479;SHT31;67769;51.972;5.668;2023-04-06T14:07:24;11.7;62.5
78479;SHT31;67769;51.972;5.668;2023-04-06T14:09:53;11.6;63.0
78479;SHT31;67769;51.972;5.668;2023-04-06T14:12:23;11.6;63.1
78479;SHT31;67769;51.972;5.668;2023-04-06T14:14:55;11.6;63.2
78479;SHT31;67769;51.972;5.668;2023-04-06T14:17:25;11.6;64.0
78479;SHT31;67769;51.972;5.668;2023-04-06T14:19:55;11.6;63.4
78479;SHT31;67769;51.972;5.668;2023-04-06T14:22:25;11.5;63.7
78479;SHT31;67769;51.972;5.668;2023-04-06T14:24:55;11.5;64.2
78479;SHT31;67769;51.972;5.668;2023-04-06T14:27:25;11.5;64.1
78479;SHT31;67769;51.972;5.668;2023-04-06T14:29:55;11.5;64.2
78479;SHT31;67769;51.972;5.668;2023-04-06T14:32:25;11.5;64.4
78479;SHT31;67769;51.972;5.668;2023-04-06T14:34:54;11.4;64.6
78479;SHT31;67769;51.972;5.668;2023-04-06T14:37:25;11.4;64.1
78479;SHT31;67769;51.972;5.668;2023-04-06T14:39:55;11.4;64.5
78479;SHT31;67769;51.972;5.668;2023-04-06T14:42:25;11.4;64.7
78479;SHT31;67769;51.972;5.668;2023-04-06T14:44:55;11.4;64.6
78479;SHT31;67769;51.972;5.668;2023-04-06T14:47:25;11.4;65.3
78479;SHT31;67769;51.972;5.668;2023-04-06T14:49:54;11.4;65.4
78479;SHT31;67769;51.972;5.668;2023-04-06T14:52:24;11.4;65.6
78479;SHT31;67769;51.972;5.668;2023-04-06T14:54:54;11.3;65.6
78479;SHT31;67769;51.972;5.668;2023-04-06T14:57:24;11.3;65.8
78479;SHT31;67769;51.972;5.668;2023-04-06T14:59:54;11.3;66.0
78479;SHT31;67769;51.972;5.668;2023-04-06T15:02:24;11.3;66.2
78479;SHT31;67769;51.972;5.668;2023-04-06T15:04:54;11.3;66.1
78479;SHT31;67769;51.972;5.668;2023-04-06T15:07:23;11.3;66.4
78479;SHT31;67769;51.972;5.668;2023-04-06T15:09:53;11.4;65.9
78479;SHT31;67769;51.972;5.668;2023-04-06T15:12:22;11.4;65.9
78479;SHT31;67769;51.972;5.668;2023-04-06T15:14:53;11.4;66.5
78479;SHT31;67769;51.972;5.668;2023-04-06T15:17:22;11.3;66.4
78479;SHT31;67769;51.972;5.668;2023-04-06T15:19:52;11.3;66.6
78479;SHT31;67769;51.972;5.668;2023-04-06T15:22:22;11.3;66.8
78479;SHT31;67769;51.972;5.668;2023-04-06T15:24:52;11.3;66.4
78479;SHT31;67769;51.972;5.668;2023-04-06T15:27:22;11.3;66.5
78479;SHT31;67769;51.972;5.668;2023-04-06T15:29:52;11.3;66.9
78479;SHT31;67769;51.972;5.668;2023-04-06T15:32:22;11.2;66.7
78479;SHT31;67769;51.972;5.668;2023-04-06T15:34:52;11.2;67.2
78479;SHT31;67769;51.972;5.668;2023-04-06T15:37:22;11.2;67.3
78479;SHT31;67769;51.972;5.668;2023-04-06T15:39:52;11.2;67.2
78479;SHT31;67769;51.972;5.668;2023-04-06T15:42:21;11.2;67.4
78479;SHT31;67769;51.972;5.668;2023-04-06T15:44:51;11.2;67.7
78479;SHT31;67769;51.972;5.668;2023-04-06T15:47:21;11.1;67.7
78479;SHT31;67769;51.972;5.668;2023-04-06T15:49:50;11.1;67.9
78479;SHT31;67769;51.972;5.668;2023-04-06T15:52:20;11.1;68.2
78479;SHT31;67769;51.972;5.668;2023-04-06T15:54:50;11.1;68.3
78479;SHT31;67769;51.972;5.668;2023-04-06T15:57:20;11.1;68.6
78479;SHT31;67769;51.972;5.668;2023-04-06T15:59:49;11.1;68.7
78479;SHT31;67769;51.972;5.668;2023-04-06T16:02:21;11.1;68.7
78479;SHT31;67769;51.972;5.668;2023-04-06T16:04:55;11.1;69.0
78479;SHT31;67769;51.972;5.668;2023-04-06T16:07:28;11.1;69.5
78479;SHT31;67769;51.972;5.668;2023-04-06T16:09:58;11.1;69.6
78479;SHT31;67769;51.972;5.668;2023-04-06T16:12:27;11.1;69.5
78479;SHT31;67769;51.972;5.668;2023-04-06T16:14:59;11.1;69.4
78479;SHT31;67769;51.972;5.668;2023-04-06T16:17:31;11.1;69.9
78479;SHT31;67769;51.972;5.668;2023-04-06T16:20:00;11.1;70.0
78479;SHT31;67769;51.972;5.668;2023-04-06T16:22:32;11.1;69.4
78479;SHT31;67769;51.972;5.668;2023-04-06T16:25:02;11.1;69.5
78479;SHT31;67769;51.972;5.668;2023-04-06T16:27:33;11.1;69.9
78479;SHT31;67769;51.972;5.668;2023-04-06T16:30:07;11.2;70.0
78479;SHT31;67769;51.972;5.668;2023-04-06T16:32:39;11.2;69.6
78479;SHT31;67769;51.972;5.668;2023-04-06T16:35:12;11.3;69.2
78479;SHT31;67769;51.972;5.668;2023-04-06T16:37:42;11.3;68.9
78479;SHT31;67769;51.972;5.668;2023-04-06T16:40:13;11.2;69.1